sensor_id;sensor_type;location;lat;lon;timestamp;P1;durP1;ratioP1;P2;durP2;ratioP2
18818;SDS011;9537;45.594;9.294;2023-10-13T00:00:08;22.37;;;14.97;;
18818;SDS011;9537;45.594;9.294;2023-10-13T00:01:25;21.23;;;14.60;;
18818;SDS011;9537;45.594;9.294;2023-10-13T00:02:27;22.67;;;15.07;;
18818;SDS011;9537;45.594;9.294;2023-10-13T00:03:28;21.27;;;15.77;;
18818;SDS011;9537;45.594;9.294;2023-10-13T00:04:31;24.52;;;14.85;;
18818;SDS011;9537;45.594;9.294;2023-10-13T00:05:35;22.35;;;15.05;;
18818;SDS011;9537;45.594;9.294;2023-10-13T00:06:38;24.17;;;15.80;;
18818;SDS011;9537;45.594;9.294;2023-10-13T00:07:38;20.30;;;14.87;;
18818;SDS011;9537;45.594;9.294;2023-10-13T00:08:40;23.20;;;15.90;;
18818;SDS011;9537;45.594;9.294;2023-10-13T00:09:41;26.55;;;16.17;;
18818;SDS011;9537;45.594;9.294;2023-10-13T00:10:42;21.17;;;16.13;;
18818;SDS011;9537;45.594;9.294;2023-10-13T00:11:44;22.67;;;14.80;;
18818;SDS011;9537;45.594;9.294;2023-10-13T00:12:45;23.30;;;16.80;;
18818;SDS011;9537;45.594;9.294;2023-10-13T00:13:49;21.07;;;15.40;;
18818;SDS011;9537;45.594;9.294;2023-10-13T00:14:50;24.53;;;15.83;;
18818;SDS011;9537;45.594;9.294;2023-10-13T00:15:55;21.88;;;16.00;;
18818;SDS011;9537;45.594;9.294;2023-10-13T00:16:59;21.20;;;14.80;;
18818;SDS011;9537;45.594;9.294;2023-10-13T00:18:05;22.63;;;14.80;;
18818;SDS011;9537;45.594;9.294;2023-10-13T00:19:12;22.17;;;14.60;;
18818;SDS011;9537;45.594;9.294;2023-10-13T00:20:14;19.47;;;14.10;;
18818;SDS011;9537;45.594;9.294;2023-10-13T00:21:17;26.77;;;16.63;;
18818;SDS011;9537;45.594;9.294;2023-10-13T00:22:31;23.27;;;15.33;;
18818;SDS011;9537;45.594;9.294;2023-10-13T00:23:34;20.57;;;14.80;;
18818;SDS011;9537;45.594;9.294;2023-10-13T00:24:36;24.13;;;16.07;;
18818;SDS011;9537;45.594;9.294;2023-10-13T00:25:42;26.63;;;16.30;;
18818;SDS011;9537;45.594;9.294;2023-10-13T00:26:50;23.13;;;14.70;;
18818;SDS011;9537;45.594;9.294;2023-10-13T00:27:54;21.53;;;15.43;;
18818;SDS011;9537;45.594;9.294;2023-10-13T00:28:56;22.17;;;15.57;;
18818;SDS011;9537;45.594;9.294;2023-10-13T00:30:08;27.40;;;16.23;;
18818;SDS011;9537;45.594;9.294;2023-10-13T00:31:23;22.98;;;15.65;;
18818;SDS011;9537;45.594;9.294;2023-10-13T00:32:24;21.67;;;14.20;;
18818;SDS011;9537;45.594;9.294;2023-10-13T00:33:27;21.83;;;14.57;;
18818;SDS011;9537;45.594;9.294;2023-10-13T00:34:28;24.88;;;15.45;;
18818;SDS011;9537;45.594;9.294;2023-10-13T00:35:32;24.07;;;15.10;;
18818;SDS011;9537;45.594;9.294;2023-10-13T00:36:36;25.67;;;15.47;;
18818;SDS011;9537;45.594;9.294;2023-10-13T00:37:46;22.87;;;14.80;;
18818;SDS011;9537;45.594;9.294;2023-10-13T00:38:48;24.67;;;15.57;;
18818;SDS011;9537;45.594;9.294;2023-10-13T00:39:52;20.70;;;13.67;;
18818;SDS011;9537;45.594;9.294;2023-10-13T00:40:56;25.38;;;16.25;;
18818;SDS011;9537;45.594;9.294;2023-10-13T00:42:04;24.13;;;15.80;;
18818;SDS011;9537;45.594;9.294;2023-10-13T00:43:07;27.23;;;15.23;;
18818;SDS011;9537;45.594;9.294;2023-10-13T00:44:23;24.70;;;15.53;;
18818;SDS011;9537;45.594;9.294;2023-10-13T00:45:32;27.10;;;15.97;;
18818;SDS011;9537;45.594;9.294;2023-10-13T00:46:35;22.73;;;14.75;;
18818;SDS011;9537;45.594;9.294;2023-10-13T00:47:38;25.70;;;15.17;;
18818;SDS011;9537;45.594;9.294;2023-10-13T00:48:40;23.75;;;16.00;;
18818;SDS011;9537;45.594;9.294;2023-10-13T00:49:51;20.83;;;14.47;;
18818;SDS011;9537;45.594;9.294;2023-10-13T00:50:52;23.47;;;16.30;;
18818;SDS011;9537;45.594;9.294;2023-10-13T00:51:56;23.48;;;16.23;;
18818;SDS011;9537;45.594;9.294;2023-10-13T00:52:58;27.77;;;16.50;;
18818;SDS011;9537;45.594;9.294;2023-10-13T00:54:01;24.73;;;16.65;;
18818;SDS011;9537;45.594;9.294;2023-10-13T00:55:07;23.55;;;16.52;;
18818;SDS011;9537;45.594;9.294;2023-10-13T00:56:09;26.33;;;17.43;;
18818;SDS011;9537;45.594;9.294;2023-10-13T00:57:19;27.57;;;16.73;;
18818;SDS011;9537;45.594;9.294;2023-10-13T00:58:26;26.77;;;17.13;;
18818;SDS011;9537;45.594;9.294;2023-10-13T00:59:29;24.63;;;16.17;;
18818;SDS011;9537;45.594;9.294;2023-10-13T01:00:33;26.73;;;17.00;;
18818;SDS011;9537;45.594;9.294;2023-10-13T01:01:48;24.03;;;15.90;;
18818;SDS011;9537;45.594;9.294;2023-10-13T01:02:54;27.87;;;16.40;;
18818;SDS011;9537;45.594;9.294;2023-10-13T01:03:57;27.83;;;15.50;;
18818;SDS011;9537;45.594;9.294;2023-10-13T01:04:59;24.97;;;15.70;;
18818;SDS011;9537;45.594;9.294;2023-10-13T01:06:00;27.38;;;16.15;;
18818;SDS011;9537;45.594;9.294;2023-10-13T01:07:03;25.30;;;16.07;;
18818;SDS011;9537;45.594;9.294;2023-10-13T01:08:04;27.97;;;15.60;;
18818;SDS011;9537;45.594;9.294;2023-10-13T01:09:10;22.70;;;15.80;;
18818;SDS011;9537;45.594;9.294;2023-10-13T01:10:13;23.92;;;16.30;;
18818;SDS011;9537;45.594;9.294;2023-10-13T01:11:15;25.83;;;15.63;;
18818;SDS011;9537;45.594;9.294;2023-10-13T01:12:16;24.53;;;15.43;;
18818;SDS011;9537;45.594;9.294;2023-10-13T01:13:16;23.38;;;15.32;;
18818;SDS011;9537;45.594;9.294;2023-10-13T01:14:18;27.37;;;16.60;;
18818;SDS011;9537;45.594;9.294;2023-10-13T01:15:20;24.60;;;17.17;;
18818;SDS011;9537;45.594;9.294;2023-10-13T01:16:22;26.67;;;16.53;;
18818;SDS011;9537;45.594;9.294;2023-10-13T01:17:28;20.60;;;14.43;;
18818;SDS011;9537;45.594;9.294;2023-10-13T01:18:31;27.88;;;17.50;;
18818;SDS011;9537;45.594;9.294;2023-10-13T01:19:35;23.97;;;16.00;;
18818;SDS011;9537;45.594;9.294;2023-10-13T01:20:38;25.17;;;15.47;;
18818;SDS011;9537;45.594;9.294;2023-10-13T01:21:46;22.90;;;15.07;;
18818;SDS011;9537;45.594;9.294;2023-10-13T01:22:47;25.47;;;16.70;;
18818;SDS011;9537;45.594;9.294;2023-10-13T01:23:57;24.27;;;15.43;;
18818;SDS011;9537;45.594;9.294;2023-10-13T01:24:58;23.90;;;15.93;;
18818;SDS011;9537;45.594;9.294;2023-10-13T01:26:06;25.60;;;15.07;;
18818;SDS011;9537;45.594;9.294;2023-10-13T01:27:07;24.95;;;16.90;;
18818;SDS011;9537;45.594;9.294;2023-10-13T01:28:17;26.67;;;16.83;;
18818;SDS011;9537;45.594;9.294;2023-10-13T01:29:19;26.23;;;16.67;;
18818;SDS011;9537;45.594;9.294;2023-10-13T01:30:26;25.38;;;16.42;;
18818;SDS011;9537;45.594;9.294;2023-10-13T01:31:27;28.88;;;17.42;;
18818;SDS011;9537;45.594;9.294;2023-10-13T01:32:30;24.97;;;16.97;;
18818;SDS011;9537;45.594;9.294;2023-10-13T01:33:31;29.20;;;17.23;;
18818;SDS011;9537;45.594;9.294;2023-10-13T01:34:34;23.47;;;16.27;;
18818;SDS011;9537;45.594;9.294;2023-10-13T01:35:37;22.27;;;15.27;;
18818;SDS011;9537;45.594;9.294;2023-10-13T01:36:42;26.33;;;16.13;;
18818;SDS011;9537;45.594;9.294;2023-10-13T01:37:44;28.63;;;16.33;;
18818;SDS011;9537;45.594;9.294;2023-10-13T01:38:46;23.70;;;15.73;;
18818;SDS011;9537;45.594;9.294;2023-10-13T01:39:48;29.03;;;17.27;;
18818;SDS011;9537;45.594;9.294;2023-10-13T01:40:49;25.17;;;16.67;;
18818;SDS011;9537;45.594;9.294;2023-10-13T01:41:52;28.47;;;16.10;;
18818;SDS011;9537;45.594;9.294;2023-10-13T01:42:55;27.63;;;16.37;;
18818;SDS011;9537;45.594;9.294;2023-10-13T01:43:56;24.97;;;17.60;;
18818;SDS011;9537;45.594;9.294;2023-10-13T01:44:57;25.80;;;15.97;;
18818;SDS011;9537;45.594;9.294;2023-10-13T01:46:05;24.87;;;16.30;;
18818;SDS011;9537;45.594;9.294;2023-10-13T01:47:06;24.57;;;15.43;;
18818;SDS011;9537;45.594;9.294;2023-10-13T01:48:07;19.97;;;14.77;;
18818;SDS011;9537;45.594;9.294;2023-10-13T01:49:09;24.33;;;15.63;;
18818;SDS011;9537;45.594;9.294;2023-10-13T01:50:11;23.77;;;15.13;;
18818;SDS011;9537;45.594;9.294;2023-10-13T01:51:19;22.97;;;14.67;;
18818;SDS011;9537;45.594;9.294;2023-10-13T01:52:23;21.10;;;15.10;;
18818;SDS011;9537;45.594;9.294;2023-10-13T01:53:27;20.47;;;14.27;;
18818;SDS011;9537;45.594;9.294;2023-10-13T01:54:29;26.35;;;16.25;;
18818;SDS011;9537;45.594;9.294;2023-10-13T01:55:31;23.57;;;15.80;;
18818;SDS011;9537;45.594;9.294;2023-10-13T01:56:43;22.97;;;14.13;;
18818;SDS011;9537;45.594;9.294;2023-10-13T01:57:43;19.47;;;13.70;;
18818;SDS011;9537;45.594;9.294;2023-10-13T01:58:47;23.93;;;15.73;;
18818;SDS011;9537;45.594;9.294;2023-10-13T01:59:49;22.17;;;14.60;;
18818;SDS011;9537;45.594;9.294;2023-10-13T02:00:50;26.63;;;14.67;;
18818;SDS011;9537;45.594;9.294;2023-10-13T02:01:51;23.63;;;15.40;;
18818;SDS011;9537;45.594;9.294;2023-10-13T02:02:56;23.03;;;14.67;;
18818;SDS011;9537;45.594;9.294;2023-10-13T02:04:01;23.43;;;15.13;;
18818;SDS011;9537;45.594;9.294;2023-10-13T02:05:04;20.52;;;14.50;;
18818;SDS011;9537;45.594;9.294;2023-10-13T02:06:06;19.20;;;14.63;;
18818;SDS011;9537;45.594;9.294;2023-10-13T02:07:10;21.87;;;14.70;;
18818;SDS011;9537;45.594;9.294;2023-10-13T02:08:15;24.73;;;15.00;;
18818;SDS011;9537;45.594;9.294;2023-10-13T02:09:18;21.80;;;14.23;;
18818;SDS011;9537;45.594;9.294;2023-10-13T02:10:25;21.80;;;14.57;;
18818;SDS011;9537;45.594;9.294;2023-10-13T02:11:29;19.90;;;13.87;;
18818;SDS011;9537;45.594;9.294;2023-10-13T02:12:30;19.27;;;13.07;;
18818;SDS011;9537;45.594;9.294;2023-10-13T02:13:37;18.23;;;13.57;;
18818;SDS011;9537;45.594;9.294;2023-10-13T02:14:48;24.93;;;14.20;;
18818;SDS011;9537;45.594;9.294;2023-10-13T02:15:49;19.80;;;13.80;;
18818;SDS011;9537;45.594;9.294;2023-10-13T02:16:53;21.50;;;14.48;;
18818;SDS011;9537;45.594;9.294;2023-10-13T02:18:13;19.13;;;13.10;;
18818;SDS011;9537;45.594;9.294;2023-10-13T02:19:20;21.27;;;13.80;;
18818;SDS011;9537;45.594;9.294;2023-10-13T02:20:21;21.20;;;13.83;;
18818;SDS011;9537;45.594;9.294;2023-10-13T02:21:26;23.37;;;14.07;;
18818;SDS011;9537;45.594;9.294;2023-10-13T02:22:32;21.43;;;13.50;;
18818;SDS011;9537;45.594;9.294;2023-10-13T02:23:32;17.87;;;12.87;;
18818;SDS011;9537;45.594;9.294;2023-10-13T02:24:38;22.00;;;13.00;;
18818;SDS011;9537;45.594;9.294;2023-10-13T02:25:40;18.23;;;12.67;;
18818;SDS011;9537;45.594;9.294;2023-10-13T02:26:47;20.17;;;13.90;;
18818;SDS011;9537;45.594;9.294;2023-10-13T02:27:48;21.67;;;14.37;;
18818;SDS011;9537;45.594;9.294;2023-10-13T02:28:58;17.83;;;12.50;;
18818;SDS011;9537;45.594;9.294;2023-10-13T02:30:02;20.40;;;14.03;;
18818;SDS011;9537;45.594;9.294;2023-10-13T02:31:04;20.60;;;13.70;;
18818;SDS011;9537;45.594;9.294;2023-10-13T02:32:07;17.73;;;13.03;;
18818;SDS011;9537;45.594;9.294;2023-10-13T02:33:18;19.77;;;12.73;;
18818;SDS011;9537;45.594;9.294;2023-10-13T02:34:21;19.27;;;12.97;;
18818;SDS011;9537;45.594;9.294;2023-10-13T02:35:23;22.07;;;13.67;;
18818;SDS011;9537;45.594;9.294;2023-10-13T02:36:30;23.27;;;13.83;;
18818;SDS011;9537;45.594;9.294;2023-10-13T02:37:36;19.43;;;13.37;;
18818;SDS011;9537;45.594;9.294;2023-10-13T02:38:36;20.63;;;13.03;;
18818;SDS011;9537;45.594;9.294;2023-10-13T02:39:46;16.87;;;12.33;;
18818;SDS011;9537;45.594;9.294;2023-10-13T02:40:46;21.73;;;13.63;;
18818;SDS011;9537;45.594;9.294;2023-10-13T02:41:48;25.83;;;14.13;;
18818;SDS011;9537;45.594;9.294;2023-10-13T02:42:50;18.90;;;13.43;;
18818;SDS011;9537;45.594;9.294;2023-10-13T02:43:51;17.73;;;12.87;;
18818;SDS011;9537;45.594;9.294;2023-10-13T02:44:52;24.03;;;13.73;;
18818;SDS011;9537;45.594;9.294;2023-10-13T02:45:56;22.53;;;13.73;;
18818;SDS011;9537;45.594;9.294;2023-10-13T02:46:59;23.13;;;14.20;;
18818;SDS011;9537;45.594;9.294;2023-10-13T02:48:00;19.63;;;12.67;;
18818;SDS011;9537;45.594;9.294;2023-10-13T02:49:12;22.17;;;14.00;;
18818;SDS011;9537;45.594;9.294;2023-10-13T02:50:14;19.47;;;13.97;;
18818;SDS011;9537;45.594;9.294;2023-10-13T02:51:18;21.10;;;14.07;;
18818;SDS011;9537;45.594;9.294;2023-10-13T02:52:22;23.05;;;13.55;;
18818;SDS011;9537;45.594;9.294;2023-10-13T02:53:24;23.17;;;14.10;;
18818;SDS011;9537;45.594;9.294;2023-10-13T02:54:28;19.73;;;12.60;;
18818;SDS011;9537;45.594;9.294;2023-10-13T02:55:31;19.20;;;12.77;;
18818;SDS011;9537;45.594;9.294;2023-10-13T02:56:32;21.30;;;13.53;;
18818;SDS011;9537;45.594;9.294;2023-10-13T02:57:35;19.97;;;13.80;;
18818;SDS011;9537;45.594;9.294;2023-10-13T02:58:36;20.43;;;13.13;;
18818;SDS011;9537;45.594;9.294;2023-10-13T02:59:39;20.53;;;13.07;;
18818;SDS011;9537;45.594;9.294;2023-10-13T03:00:46;19.93;;;12.93;;
18818;SDS011;9537;45.594;9.294;2023-10-13T03:01:46;20.57;;;13.67;;
18818;SDS011;9537;45.594;9.294;2023-10-13T03:02:47;21.33;;;13.27;;
18818;SDS011;9537;45.594;9.294;2023-10-13T03:03:58;19.23;;;12.70;;
18818;SDS011;9537;45.594;9.294;2023-10-13T03:04:59;24.23;;;13.97;;
18818;SDS011;9537;45.594;9.294;2023-10-13T03:05:59;19.03;;;13.67;;
18818;SDS011;9537;45.594;9.294;2023-10-13T03:07:01;22.40;;;13.43;;
18818;SDS011;9537;45.594;9.294;2023-10-13T03:08:03;21.33;;;12.97;;
18818;SDS011;9537;45.594;9.294;2023-10-13T03:09:06;21.90;;;13.43;;
18818;SDS011;9537;45.594;9.294;2023-10-13T03:10:15;21.10;;;13.03;;
18818;SDS011;9537;45.594;9.294;2023-10-13T03:11:19;24.70;;;13.57;;
18818;SDS011;9537;45.594;9.294;2023-10-13T03:12:21;20.87;;;12.80;;
18818;SDS011;9537;45.594;9.294;2023-10-13T03:13:26;19.63;;;12.67;;
18818;SDS011;9537;45.594;9.294;2023-10-13T03:14:26;19.80;;;13.33;;
18818;SDS011;9537;45.594;9.294;2023-10-13T03:15:31;18.17;;;12.97;;
18818;SDS011;9537;45.594;9.294;2023-10-13T03:16:35;19.57;;;13.17;;
18818;SDS011;9537;45.594;9.294;2023-10-13T03:17:36;21.70;;;13.17;;
18818;SDS011;9537;45.594;9.294;2023-10-13T03:18:41;17.33;;;12.67;;
18818;SDS011;9537;45.594;9.294;2023-10-13T03:19:51;20.30;;;13.10;;
18818;SDS011;9537;45.594;9.294;2023-10-13T03:20:54;18.57;;;12.60;;
18818;SDS011;9537;45.594;9.294;2023-10-13T03:21:59;18.77;;;13.13;;
18818;SDS011;9537;45.594;9.294;2023-10-13T03:23:09;17.87;;;12.03;;
18818;SDS011;9537;45.594;9.294;2023-10-13T03:24:09;19.47;;;12.60;;
18818;SDS011;9537;45.594;9.294;2023-10-13T03:25:14;19.50;;;13.63;;
18818;SDS011;9537;45.594;9.294;2023-10-13T03:26:24;18.80;;;13.70;;
18818;SDS011;9537;45.594;9.294;2023-10-13T03:27:24;22.47;;;14.20;;
18818;SDS011;9537;45.594;9.294;2023-10-13T03:28:40;20.23;;;13.03;;
18818;SDS011;9537;45.594;9.294;2023-10-13T03:29:42;22.47;;;14.30;;
18818;SDS011;9537;45.594;9.294;2023-10-13T03:30:43;18.23;;;13.43;;
18818;SDS011;9537;45.594;9.294;2023-10-13T03:31:44;20.90;;;12.93;;
18818;SDS011;9537;45.594;9.294;2023-10-13T03:32:46;18.50;;;13.50;;
18818;SDS011;9537;45.594;9.294;2023-10-13T03:33:50;18.23;;;13.20;;
18818;SDS011;9537;45.594;9.294;2023-10-13T03:34:57;24.23;;;13.60;;
18818;SDS011;9537;45.594;9.294;2023-10-13T03:36:11;17.83;;;13.17;;
18818;SDS011;9537;45.594;9.294;2023-10-13T03:37:33;19.30;;;13.93;;
18818;SDS011;9537;45.594;9.294;2023-10-13T03:38:39;20.30;;;14.17;;
18818;SDS011;9537;45.594;9.294;2023-10-13T03:39:40;21.43;;;13.73;;
18818;SDS011;9537;45.594;9.294;2023-10-13T03:40:45;16.97;;;12.20;;
18818;SDS011;9537;45.594;9.294;2023-10-13T03:41:50;19.52;;;13.45;;
18818;SDS011;9537;45.594;9.294;2023-10-13T03:42:54;19.43;;;13.03;;
18818;SDS011;9537;45.594;9.294;2023-10-13T03:44:01;23.17;;;13.03;;
18818;SDS011;9537;45.594;9.294;2023-10-13T03:45:13;18.77;;;13.37;;
18818;SDS011;9537;45.594;9.294;2023-10-13T03:46:14;18.00;;;12.93;;
18818;SDS011;9537;45.594;9.294;2023-10-13T03:47:21;19.27;;;12.50;;
18818;SDS011;9537;45.594;9.294;2023-10-13T03:48:26;18.40;;;12.77;;
18818;SDS011;9537;45.594;9.294;2023-10-13T03:49:31;19.47;;;12.70;;
18818;SDS011;9537;45.594;9.294;2023-10-13T03:50:37;17.93;;;12.57;;
18818;SDS011;9537;45.594;9.294;2023-10-13T03:51:46;19.60;;;13.10;;
18818;SDS011;9537;45.594;9.294;2023-10-13T03:52:48;19.63;;;12.60;;
18818;SDS011;9537;45.594;9.294;2023-10-13T03:53:50;22.77;;;12.97;;
18818;SDS011;9537;45.594;9.294;2023-10-13T03:54:52;20.60;;;12.60;;
18818;SDS011;9537;45.594;9.294;2023-10-13T03:55:54;20.33;;;13.67;;
18818;SDS011;9537;45.594;9.294;2023-10-13T03:57:08;18.43;;;12.63;;
18818;SDS011;9537;45.594;9.294;2023-10-13T03:58:12;19.40;;;12.97;;
18818;SDS011;9537;45.594;9.294;2023-10-13T03:59:14;18.90;;;12.27;;
18818;SDS011;9537;45.594;9.294;2023-10-13T04:00:19;19.03;;;11.97;;
18818;SDS011;9537;45.594;9.294;2023-10-13T04:01:24;27.53;;;13.23;;
18818;SDS011;9537;45.594;9.294;2023-10-13T04:02:31;34.37;;;13.73;;
18818;SDS011;9537;45.594;9.294;2023-10-13T04:03:32;52.70;;;14.47;;
18818;SDS011;9537;45.594;9.294;2023-10-13T04:04:36;47.90;;;13.63;;
18818;SDS011;9537;45.594;9.294;2023-10-13T04:05:48;39.77;;;14.93;;
18818;SDS011;9537;45.594;9.294;2023-10-13T04:07:02;45.90;;;14.43;;
18818;SDS011;9537;45.594;9.294;2023-10-13T04:08:16;33.70;;;13.13;;
18818;SDS011;9537;45.594;9.294;2023-10-13T04:09:35;24.50;;;12.67;;
18818;SDS011;9537;45.594;9.294;2023-10-13T04:11:10;19.97;;;12.57;;
18818;SDS011;9537;45.594;9.294;2023-10-13T04:12:30;23.30;;;12.97;;
18818;SDS011;9537;45.594;9.294;2023-10-13T04:13:49;20.80;;;11.95;;
18818;SDS011;9537;45.594;9.294;2023-10-13T04:15:07;23.27;;;13.47;;
18818;SDS011;9537;45.594;9.294;2023-10-13T04:16:26;18.43;;;12.87;;
18818;SDS011;9537;45.594;9.294;2023-10-13T04:17:37;21.07;;;13.90;;
18818;SDS011;9537;45.594;9.294;2023-10-13T04:18:44;20.97;;;12.73;;
18818;SDS011;9537;45.594;9.294;2023-10-13T04:19:51;21.30;;;13.87;;
18818;SDS011;9537;45.594;9.294;2023-10-13T04:21:07;21.07;;;13.23;;
18818;SDS011;9537;45.594;9.294;2023-10-13T04:22:19;20.80;;;14.53;;
18818;SDS011;9537;45.594;9.294;2023-10-13T04:23:23;23.13;;;13.77;;
18818;SDS011;9537;45.594;9.294;2023-10-13T04:24:28;19.07;;;12.63;;
18818;SDS011;9537;45.594;9.294;2023-10-13T04:25:53;21.67;;;12.40;;
18818;SDS011;9537;45.594;9.294;2023-10-13T04:27:09;19.43;;;13.00;;
18818;SDS011;9537;45.594;9.294;2023-10-13T04:28:38;18.17;;;12.67;;
18818;SDS011;9537;45.594;9.294;2023-10-13T04:29:54;19.50;;;12.27;;
18818;SDS011;9537;45.594;9.294;2023-10-13T04:31:15;18.50;;;12.33;;
18818;SDS011;9537;45.594;9.294;2023-10-13T04:32:25;18.23;;;12.63;;
18818;SDS011;9537;45.594;9.294;2023-10-13T04:33:30;20.77;;;13.03;;
18818;SDS011;9537;45.594;9.294;2023-10-13T04:34:44;19.33;;;12.93;;
18818;SDS011;9537;45.594;9.294;2023-10-13T04:35:45;17.43;;;12.77;;
18818;SDS011;9537;45.594;9.294;2023-10-13T04:36:59;23.53;;;13.20;;
18818;SDS011;9537;45.594;9.294;2023-10-13T04:38:22;18.27;;;12.40;;
18818;SDS011;9537;45.594;9.294;2023-10-13T04:39:33;18.90;;;12.23;;
18818;SDS011;9537;45.594;9.294;2023-10-13T04:40:40;20.30;;;13.27;;
18818;SDS011;9537;45.594;9.294;2023-10-13T04:41:58;19.33;;;13.73;;
18818;SDS011;9537;45.594;9.294;2023-10-13T04:43:11;18.27;;;12.57;;
18818;SDS011;9537;45.594;9.294;2023-10-13T04:44:33;17.60;;;12.97;;
18818;SDS011;9537;45.594;9.294;2023-10-13T04:45:48;22.50;;;12.53;;
18818;SDS011;9537;45.594;9.294;2023-10-13T04:46:56;21.37;;;13.53;;
18818;SDS011;9537;45.594;9.294;2023-10-13T04:48:17;17.53;;;12.60;;
18818;SDS011;9537;45.594;9.294;2023-10-13T04:49:29;17.83;;;12.83;;
18818;SDS011;9537;45.594;9.294;2023-10-13T04:50:35;18.53;;;12.37;;
18818;SDS011;9537;45.594;9.294;2023-10-13T04:51:44;19.70;;;13.00;;
18818;SDS011;9537;45.594;9.294;2023-10-13T04:52:58;21.77;;;13.50;;
18818;SDS011;9537;45.594;9.294;2023-10-13T04:54:02;20.77;;;12.77;;
18818;SDS011;9537;45.594;9.294;2023-10-13T04:55:12;18.10;;;12.30;;
18818;SDS011;9537;45.594;9.294;2023-10-13T04:56:33;19.40;;;12.27;;
18818;SDS011;9537;45.594;9.294;2023-10-13T04:57:52;21.03;;;13.97;;
18818;SDS011;9537;45.594;9.294;2023-10-13T04:59:11;19.90;;;13.33;;
18818;SDS011;9537;45.594;9.294;2023-10-13T05:00:35;20.57;;;12.13;;
18818;SDS011;9537;45.594;9.294;2023-10-13T05:01:56;20.47;;;12.83;;
18818;SDS011;9537;45.594;9.294;2023-10-13T05:03:15;17.30;;;12.30;;
18818;SDS011;9537;45.594;9.294;2023-10-13T05:04:33;16.27;;;12.03;;
18818;SDS011;9537;45.594;9.294;2023-10-13T05:05:59;17.73;;;12.10;;
18818;SDS011;9537;45.594;9.294;2023-10-13T05:07:27;18.58;;;11.80;;
18818;SDS011;9537;45.594;9.294;2023-10-13T05:08:46;21.02;;;12.73;;
18818;SDS011;9537;45.594;9.294;2023-10-13T05:10:06;19.23;;;12.23;;
18818;SDS011;9537;45.594;9.294;2023-10-13T05:11:25;15.47;;;10.97;;
18818;SDS011;9537;45.594;9.294;2023-10-13T05:12:45;17.33;;;12.17;;
18818;SDS011;9537;45.594;9.294;2023-10-13T05:14:04;18.80;;;13.50;;
18818;SDS011;9537;45.594;9.294;2023-10-13T05:15:42;19.95;;;12.20;;
18818;SDS011;9537;45.594;9.294;2023-10-13T05:17:03;18.53;;;12.10;;
18818;SDS011;9537;45.594;9.294;2023-10-13T05:18:22;19.03;;;12.50;;
18818;SDS011;9537;45.594;9.294;2023-10-13T05:19:41;18.97;;;12.73;;
18818;SDS011;9537;45.594;9.294;2023-10-13T05:21:01;21.23;;;12.53;;
18818;SDS011;9537;45.594;9.294;2023-10-13T05:22:20;20.87;;;12.97;;
18818;SDS011;9537;45.594;9.294;2023-10-13T05:23:39;18.80;;;12.50;;
18818;SDS011;9537;45.594;9.294;2023-10-13T05:24:59;20.63;;;11.83;;
18818;SDS011;9537;45.594;9.294;2023-10-13T05:26:30;18.37;;;12.50;;
18818;SDS011;9537;45.594;9.294;2023-10-13T05:27:54;18.73;;;12.83;;
18818;SDS011;9537;45.594;9.294;2023-10-13T05:29:13;18.33;;;12.03;;
18818;SDS011;9537;45.594;9.294;2023-10-13T05:30:34;20.90;;;11.70;;
18818;SDS011;9537;45.594;9.294;2023-10-13T05:31:53;19.65;;;13.25;;
18818;SDS011;9537;45.594;9.294;2023-10-13T05:33:14;15.63;;;10.93;;
18818;SDS011;9537;45.594;9.294;2023-10-13T05:34:33;20.90;;;12.23;;
18818;SDS011;9537;45.594;9.294;2023-10-13T05:35:53;19.10;;;12.00;;
18818;SDS011;9537;45.594;9.294;2023-10-13T05:37:12;19.37;;;13.23;;
18818;SDS011;9537;45.594;9.294;2023-10-13T05:38:31;18.17;;;12.57;;
18818;SDS011;9537;45.594;9.294;2023-10-13T05:39:51;18.53;;;11.80;;
18818;SDS011;9537;45.594;9.294;2023-10-13T05:41:10;19.60;;;12.43;;
18818;SDS011;9537;45.594;9.294;2023-10-13T05:42:29;18.10;;;12.63;;
18818;SDS011;9537;45.594;9.294;2023-10-13T05:43:48;19.07;;;13.23;;
18818;SDS011;9537;45.594;9.294;2023-10-13T05:45:08;19.13;;;12.43;;
18818;SDS011;9537;45.594;9.294;2023-10-13T05:46:24;20.50;;;13.10;;
18818;SDS011;9537;45.594;9.294;2023-10-13T05:47:43;21.00;;;13.83;;
18818;SDS011;9537;45.594;9.294;2023-10-13T05:48:55;21.53;;;13.43;;
18818;SDS011;9537;45.594;9.294;2023-10-13T05:50:10;22.85;;;13.50;;
18818;SDS011;9537;45.594;9.294;2023-10-13T05:51:13;20.63;;;13.27;;
18818;SDS011;9537;45.594;9.294;2023-10-13T05:52:33;19.33;;;13.33;;
18818;SDS011;9537;45.594;9.294;2023-10-13T05:53:52;24.42;;;13.98;;
18818;SDS011;9537;45.594;9.294;2023-10-13T05:55:12;20.60;;;13.30;;
18818;SDS011;9537;45.594;9.294;2023-10-13T05:56:31;18.77;;;13.17;;
18818;SDS011;9537;45.594;9.294;2023-10-13T05:57:50;18.80;;;12.33;;
18818;SDS011;9537;45.594;9.294;2023-10-13T05:59:10;19.20;;;12.68;;
18818;SDS011;9537;45.594;9.294;2023-10-13T06:00:29;17.73;;;13.07;;
18818;SDS011;9537;45.594;9.294;2023-10-13T06:01:48;20.10;;;12.80;;
18818;SDS011;9537;45.594;9.294;2023-10-13T06:03:07;19.37;;;13.13;;
18818;SDS011;9537;45.594;9.294;2023-10-13T06:04:28;20.47;;;12.77;;
18818;SDS011;9537;45.594;9.294;2023-10-13T06:05:48;18.73;;;13.47;;
18818;SDS011;9537;45.594;9.294;2023-10-13T06:07:07;19.47;;;13.33;;
18818;SDS011;9537;45.594;9.294;2023-10-13T06:08:26;23.53;;;12.87;;
18818;SDS011;9537;45.594;9.294;2023-10-13T06:09:46;19.00;;;13.33;;
18818;SDS011;9537;45.594;9.294;2023-10-13T06:11:05;20.00;;;13.37;;
18818;SDS011;9537;45.594;9.294;2023-10-13T06:12:24;21.43;;;13.40;;
18818;SDS011;9537;45.594;9.294;2023-10-13T06:13:43;20.83;;;14.13;;
18818;SDS011;9537;45.594;9.294;2023-10-13T06:15:05;18.97;;;13.20;;
18818;SDS011;9537;45.594;9.294;2023-10-13T06:16:25;18.70;;;12.80;;
18818;SDS011;9537;45.594;9.294;2023-10-13T06:17:44;20.70;;;13.40;;
18818;SDS011;9537;45.594;9.294;2023-10-13T06:19:03;18.43;;;12.77;;
18818;SDS011;9537;45.594;9.294;2023-10-13T06:20:25;17.77;;;12.67;;
18818;SDS011;9537;45.594;9.294;2023-10-13T06:21:43;21.53;;;12.93;;
18818;SDS011;9537;45.594;9.294;2023-10-13T06:23:03;21.30;;;14.13;;
18818;SDS011;9537;45.594;9.294;2023-10-13T06:24:22;22.67;;;13.67;;
18818;SDS011;9537;45.594;9.294;2023-10-13T06:25:41;17.77;;;13.17;;
18818;SDS011;9537;45.594;9.294;2023-10-13T06:27:00;19.80;;;13.30;;
18818;SDS011;9537;45.594;9.294;2023-10-13T06:28:16;21.03;;;13.27;;
18818;SDS011;9537;45.594;9.294;2023-10-13T06:29:35;23.50;;;13.70;;
18818;SDS011;9537;45.594;9.294;2023-10-13T06:30:37;21.20;;;12.30;;
18818;SDS011;9537;45.594;9.294;2023-10-13T06:31:38;21.13;;;12.97;;
18818;SDS011;9537;45.594;9.294;2023-10-13T06:32:46;21.00;;;12.70;;
18818;SDS011;9537;45.594;9.294;2023-10-13T06:33:47;20.43;;;13.97;;
18818;SDS011;9537;45.594;9.294;2023-10-13T06:34:49;19.80;;;12.20;;
18818;SDS011;9537;45.594;9.294;2023-10-13T06:35:52;20.17;;;13.10;;
18818;SDS011;9537;45.594;9.294;2023-10-13T06:36:56;20.70;;;12.90;;
18818;SDS011;9537;45.594;9.294;2023-10-13T06:37:57;17.50;;;13.00;;
18818;SDS011;9537;45.594;9.294;2023-10-13T06:39:00;17.27;;;12.60;;
18818;SDS011;9537;45.594;9.294;2023-10-13T06:40:16;17.47;;;12.83;;
18818;SDS011;9537;45.594;9.294;2023-10-13T06:41:25;21.90;;;13.03;;
18818;SDS011;9537;45.594;9.294;2023-10-13T06:42:34;21.53;;;14.43;;
18818;SDS011;9537;45.594;9.294;2023-10-13T06:43:36;21.93;;;13.67;;
18818;SDS011;9537;45.594;9.294;2023-10-13T06:44:40;20.60;;;12.50;;
18818;SDS011;9537;45.594;9.294;2023-10-13T06:45:45;19.70;;;13.33;;